Terminal Aerodrome Forecast
Issued by NWS

Home | Current Version | Previous Version | Text Only | Print | Product List | Glossary On
Versions: 1 2 3 4 5 6 7 8 9 10 11 12 13 14
661
FTUS46 KMTR 201158
TAFSJC
TAF
KSJC 201158Z 2012/2112 14015G20KT 5SM +RA BR BKN030 OVC040
      WS020/19040KT
      TEMPO 2012/2016 2SM +RA BR BKN010 OVC015
     FM201600 16015G20KT 3SM +RA BR OVC012 WS020/19050KT
     FM210000 19030G40KT 2SM +RA BKN015 OVC025 WS020/21060KT
     FM211000 19025G35KT 5SM SHRA BR OVC030=

USA.gov is the U.S. government's official web portal to all federal, state and local government web resources and services.